createdAt,value
2023-04-01T00:02:11.148Z,6.80
2023-04-01T00:04:40.560Z,5.50
2023-04-01T00:07:11.097Z,8.00
2023-04-01T00:09:41.025Z,7.60
2023-04-01T00:12:12.401Z,7.60
2023-04-01T00:14:40.161Z,10.70
2023-04-01T00:17:10.104Z,7.60
2023-04-01T00:19:40.245Z,5.90
2023-04-01T00:25:26.131Z,8.20
2023-04-01T00:27:57.334Z,8.80
2023-04-01T00:30:41.269Z,7.90
2023-04-01T00:33:09.573Z,7.20
2023-04-01T00:35:38.110Z,6.60
2023-04-01T00:38:07.288Z,6.50
2023-04-01T00:40:36.998Z,8.90
2023-04-01T00:43:11.114Z,10.80
2023-04-01T00:45:40.928Z,8.40
2023-04-01T00:48:35.983Z,5.90
2023-04-01T00:51:16.924Z,6.10
2023-04-01T00:53:46.816Z,6.40
2023-04-01T00:56:19.326Z,5.50
2023-04-01T00:58:50.065Z,6.20
2023-04-01T01:01:24.942Z,6.40
2023-04-01T01:03:53.440Z,8.10
2023-04-01T01:06:40.310Z,6.60
2023-04-01T01:09:18.902Z,8.00
2023-04-01T01:11:51.658Z,10.10
2023-04-01T01:14:29.088Z,12.40
2023-04-01T01:17:03.886Z,7.70
2023-04-01T01:19:51.430Z,10.50
2023-04-01T01:22:49.385Z,9.40
2023-04-01T01:25:42.326Z,6.00
2023-04-01T01:28:48.608Z,5.90
2023-04-01T01:31:38.091Z,5.40
2023-04-01T01:34:09.002Z,6.30
2023-04-01T01:36:40.053Z,6.30
2023-04-01T01:39:11.213Z,4.20
2023-04-01T01:41:40.711Z,4.30
2023-04-01T01:44:12.475Z,5.50
2023-04-01T01:46:41.554Z,5.80
2023-04-01T01:49:12.028Z,4.80
2023-04-01T01:51:41.070Z,6.20
2023-04-01T01:54:17.646Z,3.90
2023-04-01T01:56:48.718Z,4.70
2023-04-01T01:59:19.872Z,3.30
2023-04-01T02:01:50.647Z,3.00
2023-04-01T02:04:20.227Z,3.20
2023-04-01T02:06:53.491Z,5.40
2023-04-01T02:09:22.246Z,3.60
2023-04-01T02:11:52.473Z,2.90
2023-04-01T02:14:26.082Z,3.60
2023-04-01T02:17:27.771Z,5.00
2023-04-01T02:22:29.007Z,2.80
2023-04-01T02:25:02.167Z,4.10
2023-04-01T02:27:31.225Z,3.00
2023-04-01T02:29:59.751Z,3.90
2023-04-01T02:32:31.414Z,3.20
2023-04-01T02:35:04.229Z,3.50
2023-04-01T02:37:33.977Z,3.70
2023-04-01T02:40:07.678Z,4.60
2023-04-01T02:42:35.884Z,5.30
2023-04-01T02:45:04.980Z,4.30
2023-04-01T02:47:33.360Z,3.00
2023-04-01T02:50:01.603Z,4.00
2023-04-01T02:52:30.528Z,2.30
2023-04-01T02:54:59.130Z,3.10
2023-04-01T03:00:12.295Z,1.90
2023-04-01T03:02:49.676Z,3.80
2023-04-01T03:05:18.130Z,4.50
2023-04-01T03:07:49.473Z,4.10
2023-04-01T03:10:17.976Z,3.20
2023-04-01T03:12:45.990Z,2.80
2023-04-01T03:15:15.691Z,3.90
2023-04-01T03:17:47.897Z,2.20
2023-04-01T03:20:18.485Z,4.90
2023-04-01T03:22:48.037Z,5.90
2023-04-01T03:25:15.992Z,7.30
2023-04-01T03:27:44.040Z,6.40
2023-04-01T03:30:12.401Z,5.30
2023-04-01T03:32:48.881Z,5.10
2023-04-01T03:35:17.201Z,7.20
2023-04-01T03:37:46.920Z,5.40
2023-04-01T03:40:37.784Z,3.20
2023-04-01T03:43:17.786Z,3.50
2023-04-01T03:45:49.324Z,4.20
2023-04-01T03:48:18.121Z,2.60
2023-04-01T03:50:46.589Z,2.60
2023-04-01T03:53:14.821Z,3.40
2023-04-01T03:55:42.862Z,3.10
2023-04-01T03:58:11.633Z,9.00
2023-04-01T04:00:39.853Z,9.30
2023-04-01T04:03:08.502Z,8.40
2023-04-01T04:05:39.566Z,6.90
2023-04-01T04:08:07.616Z,6.80
2023-04-01T04:10:38.442Z,5.20
2023-04-01T04:13:07.331Z,3.90
2023-04-01T04:15:39.383Z,5.70
2023-04-01T04:18:10.635Z,4.30
2023-04-01T04:20:54.715Z,4.80
2023-04-01T04:23:26.437Z,3.40
2023-04-01T04:26:05.785Z,6.30
2023-04-01T04:28:37.440Z,11.20
2023-04-01T04:31:06.472Z,5.70
2023-04-01T04:33:35.585Z,5.90
2023-04-01T04:36:23.362Z,5.20
2023-04-01T04:38:52.152Z,15.20
2023-04-01T04:41:40.900Z,13.10
2023-04-01T04:44:19.069Z,21.10
2023-04-01T04:46:47.677Z,19.20
2023-04-01T04:49:28.267Z,29.20
2023-04-01T04:52:08.980Z,22.20
2023-04-01T04:54:37.089Z,17.00
2023-04-01T04:57:06.147Z,11.50
2023-04-01T04:59:43.080Z,13.20
2023-04-01T05:02:17.813Z,14.60
2023-04-01T05:04:46.273Z,11.30
2023-04-01T05:07:17.909Z,9.70
2023-04-01T05:09:55.021Z,8.60
2023-04-01T05:12:23.398Z,10.30
2023-04-01T05:14:59.880Z,11.40
2023-04-01T05:17:28.498Z,7.20
2023-04-01T05:19:56.518Z,5.80
2023-04-01T05:22:28.378Z,4.90
2023-04-01T05:24:56.643Z,4.90
2023-04-01T05:27:25.241Z,7.30
2023-04-01T05:29:53.472Z,5.80
2023-04-01T05:32:40.070Z,3.70
2023-04-01T05:35:08.600Z,7.10
2023-04-01T05:37:36.934Z,20.10
2023-04-01T05:40:05.859Z,10.90
2023-04-01T05:42:38.438Z,6.90
2023-04-01T05:45:10.314Z,8.30
2023-04-01T05:47:57.036Z,7.00
2023-04-01T05:50:34.716Z,18.60
2023-04-01T05:53:03.841Z,8.90
2023-04-01T05:55:32.224Z,3.70
2023-04-01T05:58:00.602Z,11.00
2023-04-01T06:00:31.812Z,5.10
2023-04-01T06:03:01.098Z,12.30
2023-04-01T06:05:30.521Z,6.10
2023-04-01T06:08:11.490Z,11.20
2023-04-01T06:13:22.630Z,5.70
2023-04-01T06:16:05.990Z,5.20
2023-04-01T06:18:40.441Z,4.30
2023-04-01T06:21:21.290Z,4.70
2023-04-01T06:24:19.882Z,8.10
2023-04-01T06:26:48.386Z,5.90
2023-04-01T06:29:39.239Z,5.10
2023-04-01T06:32:15.233Z,7.30
2023-04-01T06:34:49.250Z,6.40
2023-04-01T06:37:51.184Z,3.60
2023-04-01T06:40:31.730Z,5.20
2023-04-01T06:43:03.336Z,10.20
2023-04-01T06:46:19.055Z,6.40
2023-04-01T06:49:22.733Z,9.40
2023-04-01T06:52:31.571Z,4.80
2023-04-01T06:55:22.934Z,14.20
2023-04-01T06:58:36.743Z,7.70
2023-04-01T07:01:07.591Z,7.60
2023-04-01T07:03:48.049Z,5.30
2023-04-01T07:06:46.338Z,6.10
2023-04-01T07:09:17.744Z,4.90
2023-04-01T07:12:14.739Z,9.70
2023-04-01T07:15:27.534Z,7.90
2023-04-01T07:18:08.333Z,6.20
2023-04-01T07:20:38.082Z,6.60
2023-04-01T07:23:08.349Z,5.40
2023-04-01T07:25:49.080Z,3.40
2023-04-01T07:28:43.302Z,4.10
2023-04-01T07:31:42.060Z,4.60
2023-04-01T07:34:10.439Z,3.60
2023-04-01T07:36:38.918Z,5.10
2023-04-01T07:39:06.999Z,4.10
2023-04-01T07:42:09.100Z,4.30
2023-04-01T07:44:56.097Z,3.50
2023-04-01T07:47:34.561Z,3.20
2023-04-01T07:50:14.650Z,5.60
2023-04-01T07:52:43.436Z,4.90
2023-04-01T07:55:29.655Z,7.10
2023-04-01T07:58:06.358Z,3.00
2023-04-01T08:00:54.636Z,4.50
2023-04-01T08:03:34.822Z,3.30
2023-04-01T08:06:15.558Z,5.60
2023-04-01T08:08:46.532Z,5.00
2023-04-01T08:11:43.698Z,8.60
2023-04-01T08:14:47.373Z,8.70
2023-04-01T08:17:50.843Z,7.30
2023-04-01T08:20:32.729Z,5.90
2023-04-01T08:23:21.818Z,6.70
2023-04-01T08:25:50.728Z,8.20
2023-04-01T08:28:19.308Z,5.70
2023-04-01T08:30:59.589Z,9.80
2023-04-01T08:33:32.347Z,5.40
2023-04-01T08:36:24.744Z,13.00
2023-04-01T08:39:00.986Z,6.90
2023-04-01T08:41:29.568Z,5.90
2023-04-01T08:44:17.687Z,4.50
2023-04-01T08:46:49.183Z,5.90
2023-04-01T08:52:04.017Z,9.50
2023-04-01T08:54:50.829Z,4.60
2023-04-01T08:57:28.380Z,7.10
2023-04-01T09:00:39.860Z,4.20
2023-04-01T09:03:41.009Z,4.60
2023-04-01T09:06:28.088Z,6.90
2023-04-01T09:09:28.818Z,3.60
2023-04-01T09:12:17.351Z,7.20
2023-04-01T09:14:48.363Z,7.40
2023-04-01T09:17:42.760Z,4.20
2023-04-01T09:20:29.494Z,6.20
2023-04-01T09:26:44.896Z,8.40
2023-04-01T09:29:25.033Z,10.80
2023-04-01T09:32:02.851Z,9.40
2023-04-01T09:34:57.760Z,15.20
2023-04-01T09:37:41.048Z,7.40
2023-04-01T09:40:46.497Z,11.70
2023-04-01T09:43:17.335Z,6.70
2023-04-01T09:45:51.017Z,11.20
2023-04-01T09:48:36.874Z,13.00
2023-04-01T09:51:10.321Z,10.50
2023-04-01T09:53:46.880Z,7.40
2023-04-01T09:56:36.303Z,2.80
2023-04-01T09:59:15.738Z,5.00
2023-04-01T10:02:19.780Z,3.20
2023-04-01T10:04:46.639Z,3.90
2023-04-01T10:07:22.697Z,2.60
2023-04-01T10:10:20.148Z,5.60
2023-04-01T10:12:53.662Z,8.40
2023-04-01T10:15:23.632Z,4.80
2023-04-01T10:18:15.151Z,2.10
2023-04-01T10:20:51.080Z,2.60
2023-04-01T10:23:37.935Z,3.10
2023-04-01T10:26:06.393Z,2.00
2023-04-01T10:28:52.385Z,2.90
2023-04-01T10:31:57.486Z,3.70
2023-04-01T10:34:31.072Z,3.50
2023-04-01T10:37:00.380Z,1.50
2023-04-01T10:39:32.602Z,3.00
2023-04-01T10:42:19.665Z,3.90
2023-04-01T10:45:27.514Z,2.20
2023-04-01T10:47:57.574Z,4.10
2023-04-01T10:50:25.833Z,2.60
2023-04-01T10:53:31.060Z,2.70
2023-04-01T10:56:32.930Z,4.10
2023-04-01T10:59:24.136Z,2.50
2023-04-01T11:02:22.952Z,2.50
2023-04-01T11:05:31.946Z,2.70
2023-04-01T11:08:27.639Z,6.60
2023-04-01T11:11:15.067Z,12.50
2023-04-01T11:13:45.328Z,7.20
2023-04-01T11:16:33.841Z,7.00
2023-04-01T11:19:12.389Z,3.70
2023-04-01T11:21:59.314Z,3.00
2023-04-01T11:24:40.632Z,7.50
2023-04-01T11:27:43.277Z,8.00
2023-04-01T11:30:17.594Z,4.80
2023-04-01T11:32:52.226Z,9.10
2023-04-01T11:35:32.614Z,8.80
2023-04-01T11:38:15.241Z,6.00
2023-04-01T11:41:15.973Z,4.80
2023-04-01T11:44:22.883Z,8.10
2023-04-01T11:47:23.308Z,8.50
2023-04-01T11:50:11.546Z,13.60
2023-04-01T11:52:57.610Z,7.40
2023-04-01T11:58:11.282Z,5.20
2023-04-01T12:00:38.476Z,9.70
2023-04-01T12:03:26.776Z,7.40
2023-04-01T12:06:35.889Z,15.60
2023-04-01T12:09:11.684Z,8.30
2023-04-01T12:12:08.621Z,8.60
2023-04-01T12:14:51.332Z,8.70
2023-04-01T12:17:20.883Z,8.50
2023-04-01T12:19:52.221Z,6.50
2023-04-01T12:22:21.835Z,7.30
2023-04-01T12:25:04.178Z,7.40
2023-04-01T12:27:50.698Z,2.30
2023-04-01T12:30:27.669Z,2.10
2023-04-01T12:33:15.443Z,2.50
2023-04-01T12:35:42.251Z,5.50
2023-04-01T12:38:15.316Z,5.70
2023-04-01T12:40:45.532Z,4.90
2023-04-01T12:43:18.361Z,24.20
2023-04-01T12:45:57.918Z,25.20
2023-04-01T12:49:06.010Z,14.50
2023-04-01T12:51:32.797Z,21.30
2023-04-01T12:54:02.700Z,5.00
2023-04-01T12:56:51.360Z,5.00
2023-04-01T12:59:44.142Z,12.60
2023-04-01T13:02:39.747Z,6.10
2023-04-01T13:05:13.115Z,11.10
2023-04-01T13:07:49.821Z,10.00
2023-04-01T13:10:37.941Z,26.60
2023-04-01T13:13:13.993Z,3.10
2023-04-01T13:16:21.000Z,40.20
2023-04-01T13:19:39.934Z,210.90
2023-04-01T13:22:48.945Z,259.60
2023-04-01T13:25:45.116Z,110.70
2023-04-01T13:28:52.289Z,24.60
2023-04-01T13:31:46.468Z,39.40
2023-04-01T13:34:56.748Z,17.30
2023-04-01T13:37:43.360Z,12.30
2023-04-01T13:40:41.364Z,14.50
2023-04-01T13:43:24.228Z,17.00
2023-04-01T13:45:51.177Z,11.50
2023-04-01T13:48:36.101Z,7.90
2023-04-01T13:51:15.414Z,32.80
2023-04-01T13:54:00.756Z,11.00
2023-04-01T13:56:43.494Z,7.60
2023-04-01T13:59:28.782Z,4.80
2023-04-01T14:02:05.212Z,7.20
2023-04-01T14:04:32.261Z,10.50
2023-04-01T14:07:02.333Z,18.70
2023-04-01T14:09:41.512Z,33.40
2023-04-01T14:12:21.672Z,10.80
2023-04-01T14:15:07.249Z,35.30
2023-04-01T14:17:59.812Z,24.80
2023-04-01T14:20:29.681Z,27.20
2023-04-01T14:23:06.072Z,15.90
2023-04-01T14:25:55.948Z,16.20
2023-04-01T14:28:41.134Z,24.50
2023-04-01T14:31:23.473Z,47.30
2023-04-01T14:34:12.608Z,29.00
2023-04-01T14:36:46.615Z,103.30
2023-04-01T14:39:32.066Z,62.30
2023-04-01T14:42:22.006Z,43.10
2023-04-01T14:44:49.125Z,26.00
2023-04-01T14:47:34.896Z,40.30
2023-04-01T14:50:12.554Z,120.60
2023-04-01T14:52:40.885Z,110.60
2023-04-01T14:55:28.588Z,144.10
2023-04-01T14:58:10.921Z,208.50
2023-04-01T15:01:01.713Z,226.90
2023-04-01T15:03:31.070Z,153.10
2023-04-01T15:06:00.512Z,267.90
2023-04-01T15:08:30.652Z,113.70
2023-04-01T15:11:22.274Z,119.70
2023-04-01T15:14:01.362Z,45.70
2023-04-01T15:16:35.236Z,44.40
2023-04-01T15:19:04.968Z,24.00
2023-04-01T15:21:38.050Z,22.30
2023-04-01T15:24:07.977Z,19.40
2023-04-01T15:26:45.222Z,55.70
2023-04-01T15:29:27.744Z,38.90
2023-04-01T15:31:58.544Z,17.70
2023-04-01T15:34:25.331Z,15.60
2023-04-01T15:36:57.585Z,342.50
2023-04-01T15:39:39.121Z,195.40
2023-04-01T15:42:25.974Z,61.90
2023-04-01T15:44:52.610Z,40.20
2023-04-01T15:47:25.970Z,75.40
2023-04-01T15:49:56.679Z,62.70
2023-04-01T15:52:25.417Z,77.70
2023-04-01T15:55:12.545Z,46.20
2023-04-01T15:57:48.679Z,61.00
2023-04-01T16:00:30.772Z,110.70
2023-04-01T16:03:16.313Z,72.30
2023-04-01T16:05:52.081Z,126.20
2023-04-01T16:08:39.815Z,125.60
2023-04-01T16:11:09.507Z,233.70
2023-04-01T16:13:55.235Z,105.00
2023-04-01T16:16:27.968Z,107.10
2023-04-01T16:18:54.803Z,89.90
2023-04-01T16:21:36.123Z,127.80
2023-04-01T16:24:35.469Z,122.60
2023-04-01T16:27:11.039Z,112.90
2023-04-01T16:29:51.821Z,107.60
2023-04-01T16:32:30.688Z,152.10
2023-04-01T16:35:12.686Z,144.50
2023-04-01T16:37:43.885Z,225.50
2023-04-01T16:40:14.683Z,23.40
2023-04-01T16:42:47.164Z,15.50
2023-04-01T16:45:27.850Z,84.30
2023-04-01T16:47:57.163Z,43.40
2023-04-01T16:50:23.969Z,44.00
2023-04-01T16:53:03.109Z,383.40
2023-04-01T16:55:44.402Z,230.80
2023-04-01T16:58:14.696Z,207.00
2023-04-01T17:00:48.054Z,220.10
2023-04-01T17:03:21.221Z,522.90
2023-04-01T17:06:06.902Z,234.40
2023-04-01T17:08:36.028Z,182.00
2023-04-01T17:11:17.808Z,115.60
2023-04-01T17:14:13.389Z,282.90
2023-04-01T17:16:43.308Z,49.20
2023-04-01T17:19:24.678Z,243.70
2023-04-01T17:22:10.591Z,185.80
2023-04-01T17:24:50.485Z,209.90
2023-04-01T17:27:26.330Z,272.40
2023-04-01T17:30:07.257Z,162.90
2023-04-01T17:32:40.335Z,167.20
2023-04-01T17:35:14.744Z,100.70
2023-04-01T17:38:16.592Z,63.40
2023-04-01T17:40:49.172Z,53.80
2023-04-01T17:43:36.736Z,61.50
2023-04-01T17:46:10.576Z,37.30
2023-04-01T17:48:55.056Z,81.90
2023-04-01T17:51:21.690Z,57.00
2023-04-01T17:53:57.830Z,118.40
2023-04-01T17:56:33.234Z,118.60
2023-04-01T17:59:05.930Z,47.70
2023-04-01T18:01:41.263Z,9.10
2023-04-01T18:04:11.069Z,27.90
2023-04-01T18:06:57.172Z,26.50
2023-04-01T18:09:24.322Z,16.40
2023-04-01T18:12:09.687Z,10.20
2023-04-01T18:14:36.361Z,18.40
2023-04-01T18:17:03.033Z,13.50
2023-04-01T18:19:39.382Z,6.00
2023-04-01T18:25:35.584Z,15.70
2023-04-01T18:28:32.379Z,49.10
2023-04-01T18:31:03.484Z,76.20
2023-04-01T18:33:44.133Z,40.70
2023-04-01T18:36:19.272Z,17.60
2023-04-01T18:39:01.425Z,15.10
2023-04-01T18:41:45.318Z,31.80
2023-04-01T18:44:39.507Z,64.70
2023-04-01T18:47:26.460Z,71.60
2023-04-01T18:50:00.499Z,61.80
2023-04-01T18:52:38.964Z,68.60
2023-04-01T18:55:18.587Z,44.10
2023-04-01T18:58:03.231Z,23.90
2023-04-01T19:00:44.154Z,29.40
2023-04-01T19:03:32.874Z,33.30
2023-04-01T19:06:02.894Z,39.00
2023-04-01T19:08:40.400Z,44.10
2023-04-01T19:11:18.005Z,72.00
2023-04-01T19:13:52.044Z,66.70
2023-04-01T19:16:22.398Z,36.00
2023-04-01T19:19:08.815Z,30.20
2023-04-01T19:21:38.932Z,26.90
2023-04-01T19:24:19.215Z,20.50
2023-04-01T19:26:57.934Z,17.80
2023-04-01T19:29:26.193Z,21.90
2023-04-01T19:31:54.279Z,31.50
2023-04-01T19:34:38.411Z,28.90
2023-04-01T19:37:15.477Z,29.80
2023-04-01T19:39:49.989Z,22.90
2023-04-01T19:42:33.920Z,36.40
2023-04-01T19:45:20.769Z,39.20
2023-04-01T19:48:01.196Z,26.00
2023-04-01T19:50:54.102Z,19.90
2023-04-01T19:53:30.447Z,19.70
2023-04-01T19:56:04.913Z,24.20
2023-04-01T19:58:45.076Z,25.30
2023-04-01T20:01:18.707Z,34.10
2023-04-01T20:03:57.480Z,28.80
2023-04-01T20:06:30.618Z,30.60
2023-04-01T20:08:58.841Z,29.90
2023-04-01T20:11:53.173Z,28.60
2023-04-01T20:14:24.472Z,24.20
2023-04-01T20:17:16.314Z,21.40
2023-04-01T20:19:59.997Z,39.90
2023-04-01T20:22:31.301Z,38.50
2023-04-01T20:28:10.827Z,31.40
2023-04-01T20:33:23.609Z,18.10
2023-04-01T20:36:11.704Z,20.10
2023-04-01T20:39:00.969Z,18.40
2023-04-01T20:41:46.548Z,23.50
2023-04-01T20:44:15.589Z,31.60
2023-04-01T20:46:47.944Z,35.40
2023-04-01T20:49:24.842Z,29.30
2023-04-01T20:52:03.415Z,29.30
2023-04-01T20:54:34.272Z,32.30
2023-04-01T20:57:07.712Z,35.50
2023-04-01T20:59:54.361Z,28.00
2023-04-01T21:02:40.786Z,37.00
2023-04-01T21:05:27.813Z,38.20
2023-04-01T21:07:59.063Z,34.70
2023-04-01T21:13:02.849Z,39.30
2023-04-01T21:15:43.297Z,28.60
2023-04-01T21:18:25.427Z,32.50
2023-04-01T21:21:15.820Z,31.30
2023-04-01T21:23:46.991Z,44.00
2023-04-01T21:28:49.124Z,29.70
2023-04-01T21:31:23.269Z,27.80
2023-04-01T21:33:51.548Z,34.70
2023-04-01T21:36:22.499Z,34.30
2023-04-01T21:38:53.597Z,31.60
2023-04-01T21:41:54.143Z,27.00
2023-04-01T21:44:23.503Z,30.20
2023-04-01T21:47:11.363Z,27.00
2023-04-01T21:50:00.427Z,24.70
2023-04-01T21:52:49.890Z,30.80
2023-04-01T21:55:17.883Z,35.60
2023-04-01T21:57:49.015Z,36.20
2023-04-01T22:02:56.634Z,35.20
2023-04-01T22:05:31.579Z,33.10
2023-04-01T22:08:21.231Z,32.30
2023-04-01T22:11:00.178Z,35.80
2023-04-01T22:13:44.332Z,36.40
2023-04-01T22:16:28.763Z,38.60
2023-04-01T22:19:14.389Z,39.20
2023-04-01T22:21:53.150Z,34.80
2023-04-01T22:24:40.080Z,37.40
2023-04-01T22:27:14.002Z,37.00
2023-04-01T22:29:45.011Z,37.90
2023-04-01T22:35:05.856Z,39.50
2023-04-01T22:37:36.890Z,39.10
2023-04-01T22:40:37.310Z,40.60
2023-04-01T22:43:07.343Z,42.70
2023-04-01T22:45:49.256Z,37.50
2023-04-01T22:48:17.309Z,42.90
2023-04-01T22:50:48.109Z,35.30
2023-04-01T22:53:20.844Z,34.20
2023-04-01T22:55:53.421Z,35.70
2023-04-01T22:58:33.965Z,31.60
2023-04-01T23:01:06.455Z,40.40
2023-04-01T23:03:37.374Z,35.20
2023-04-01T23:06:06.167Z,32.20
2023-04-01T23:08:40.037Z,28.20
2023-04-01T23:11:09.878Z,34.40
2023-04-01T23:13:49.481Z,37.50
2023-04-01T23:16:19.424Z,36.40
2023-04-01T23:18:54.097Z,31.80
2023-04-01T23:25:23.504Z,35.00
2023-04-01T23:28:08.575Z,37.90
2023-04-01T23:30:38.388Z,40.80
2023-04-01T23:33:50.965Z,26.50
2023-04-01T23:36:17.622Z,28.30
2023-04-01T23:38:47.640Z,31.40
2023-04-01T23:41:20.814Z,31.70
2023-04-01T23:43:52.033Z,35.10
2023-04-01T23:49:16.204Z,25.30
2023-04-01T23:52:01.903Z,24.50
2023-04-01T23:54:40.738Z,27.50
2023-04-01T23:57:12.294Z,33.70
2023-04-01T23:59:39.536Z,37.10
